PWSweather.com
Personal Weather Stations
Station Observations
AC5CV
Greenleaf Peninsula, Waco, TX 76710

Greenleaf PeninsulaWaco, TX 76710

Lat: 31.565, Lon: -97.198

Elevation: 570

Station Type: Ambient WS2080

http://johnchamber.dyndns.info/

High Low Average
Temperature 82.8°F28.2°C 70.9°F21.6°C 75.6°F24.2°C
Dew Point 68.2°F20.1°C 64.0°F17.8°C 66.2°F19.0°C
Winds 10.1 mph 16.3 kmh 0.8 mph 1.3 kmh 4.0 mph SE6.4 kmh SE
Wind Gusts 24.8 mph39.9 kmh 2.5 mph4.0 kmh 9.0 mph14.5 kmh
Humidity 87% 54% 73%
Pressure 29.34 in993.6 mb 29.26 in990.9 mb -
Precipitation 0.00 in0.0 mm - -
Hour Temp Dew Point Humidity Winds Wind Gusts Pressure Precip Precip Rate Daily Precip Total
12:00 AM 71.4°F21.9°C 66.3°F19.1°C 84% 2.4 mph NE3.9 kmh NE 4.9 mph7.9 kmh 29.32 in992.9 mb 0.00 in0.0 mm 0.00 in0.0 mm 0.00 in0.0 mm
12:05 AM 71.2°F21.8°C 66.1°F18.9°C 84% 2.0 mph NNE3.2 kmh NNE 4.9 mph7.9 kmh 29.31 in992.6 mb 0.00 in0.0 mm 0.00 in0.0 mm 0.00 in0.0 mm
12:10 AM 71.2°F21.8°C 66.5°F19.2°C 85% 2.9 mph N4.7 kmh N 4.9 mph7.9 kmh 29.32 in992.9 mb 0.00 in0.0 mm 0.00 in0.0 mm 0.00 in0.0 mm
12:15 AM 71.2°F21.8°C 66.5°F19.2°C 85% 3.0 mph N4.8 kmh N 7.4 mph11.9 kmh 29.31 in992.6 mb 0.00 in0.0 mm 0.00 in0.0 mm 0.00 in0.0 mm
12:20 AM 71.2°F21.8°C 66.3°F19.1°C 85% 3.4 mph NE5.5 kmh NE 9.8 mph15.8 kmh 29.31 in992.6 mb 0.00 in0.0 mm 0.00 in0.0 mm 0.00 in0.0 mm
12:25 AM 71.2°F21.8°C 66.0°F18.9°C 84% 3.4 mph NNE5.5 kmh NNE 9.8 mph15.8 kmh 29.31 in992.6 mb 0.00 in0.0 mm 0.00 in0.0 mm 0.00 in0.0 mm
12:30 AM 71.3°F21.8°C 65.6°F18.7°C 82% 3.5 mph NE5.6 kmh NE 7.4 mph11.9 kmh 29.32 in992.9 mb 0.00 in0.0 mm 0.00 in0.0 mm 0.00 in0.0 mm
12:35 AM 71.4°F21.9°C 66.0°F18.9°C 83% 2.9 mph N4.7 kmh N 7.4 mph11.9 kmh 29.31 in992.6 mb 0.00 in0.0 mm 0.00 in0.0 mm 0.00 in0.0 mm
12:40 AM 71.4°F21.9°C 65.6°F18.7°C 82% 3.1 mph NE5.0 kmh NE 7.4 mph11.9 kmh 29.32 in992.9 mb 0.00 in0.0 mm 0.00 in0.0 mm 0.00 in0.0 mm
12:45 AM 71.4°F21.9°C 65.6°F18.7°C 82% 3.0 mph NE4.8 kmh NE 7.4 mph11.9 kmh 29.31 in992.6 mb 0.00 in0.0 mm 0.00 in0.0 mm 0.00 in0.0 mm
12:50 AM 71.6°F22.0°C 65.4°F18.6°C 81% 3.3 mph NNE5.3 kmh NNE 7.4 mph11.9 kmh 29.31 in992.6 mb 0.00 in0.0 mm 0.00 in0.0 mm 0.00 in0.0 mm
12:55 AM 71.8°F22.1°C 65.3°F18.5°C 80% 3.2 mph NNE5.1 kmh NNE 4.9 mph7.9 kmh 29.31 in992.6 mb 0.00 in0.0 mm 0.00 in0.0 mm 0.00 in0.0 mm
01:00 AM 71.8°F22.1°C 65.3°F18.5°C 80% 3.9 mph NE6.3 kmh NE 7.4 mph11.9 kmh 29.30 in992.2 mb 0.00 in0.0 mm 0.00 in0.0 mm 0.00 in0.0 mm
01:05 AM 71.8°F22.1°C 65.6°F18.7°C 81% 2.4 mph NNW3.9 kmh NNW 7.4 mph11.9 kmh 29.30 in992.2 mb 0.00 in0.0 mm 0.00 in0.0 mm 0.00 in0.0 mm
01:10 AM 71.9°F22.2°C 65.7°F18.7°C 81% 3.2 mph N5.1 kmh N 7.4 mph11.9 kmh 29.30 in992.2 mb 0.00 in0.0 mm 0.00 in0.0 mm 0.00 in0.0 mm
01:15 AM 72.0°F22.2°C 65.8°F18.8°C 81% 3.1 mph N5.0 kmh N 7.4 mph11.9 kmh 29.31 in992.6 mb 0.00 in0.0 mm 0.00 in0.0 mm 0.00 in0.0 mm
01:20 AM 72.0°F22.2°C 65.9°F18.8°C 81% 3.3 mph N5.3 kmh N 7.4 mph11.9 kmh 29.31 in992.6 mb 0.00 in0.0 mm 0.00 in0.0 mm 0.00 in0.0 mm
01:25 AM 72.0°F22.2°C 65.8°F18.8°C 81% 3.5 mph N5.6 kmh N 7.4 mph11.9 kmh 29.30 in992.2 mb 0.00 in0.0 mm 0.00 in0.0 mm 0.00 in0.0 mm
01:30 AM 72.0°F22.2°C 65.8°F18.8°C 81% 3.5 mph NNE5.6 kmh NNE 7.4 mph11.9 kmh 29.30 in992.2 mb 0.00 in0.0 mm 0.00 in0.0 mm 0.00 in0.0 mm
01:35 AM 71.8°F22.1°C 65.5°F18.6°C 80% 5.4 mph N8.7 kmh N 9.8 mph15.8 kmh 29.30 in992.2 mb 0.00 in0.0 mm 0.00 in0.0 mm 0.00 in0.0 mm
01:40 AM 71.8°F22.1°C 65.5°F18.6°C 80% 3.1 mph NNW5.0 kmh NNW 9.8 mph15.8 kmh 29.30 in992.2 mb 0.00 in0.0 mm 0.00 in0.0 mm 0.00 in0.0 mm
01:45 AM 71.8°F22.1°C 65.6°F18.7°C 81% 6.1 mph N9.8 kmh N 12.3 mph19.8 kmh 29.30 in992.2 mb 0.00 in0.0 mm 0.00 in0.0 mm 0.00 in0.0 mm
01:50 AM 71.9°F22.2°C 65.4°F18.6°C 80% 4.1 mph N6.6 kmh N 9.8 mph15.8 kmh 29.30 in992.2 mb 0.00 in0.0 mm 0.00 in0.0 mm 0.00 in0.0 mm
01:55 AM 72.0°F22.2°C 65.5°F18.6°C 80% 2.3 mph N3.7 kmh N 7.4 mph11.9 kmh 29.30 in992.2 mb 0.00 in0.0 mm 0.00 in0.0 mm 0.00 in0.0 mm
02:00 AM 72.0°F22.2°C 65.8°F18.8°C 81% 3.1 mph N5.0 kmh N 7.4 mph11.9 kmh 29.30 in992.2 mb 0.00 in0.0 mm 0.00 in0.0 mm 0.00 in0.0 mm
02:05 AM 72.0°F22.2°C 65.8°F18.8°C 81% 4.6 mph NE7.4 kmh NE 7.4 mph11.9 kmh 29.30 in992.2 mb 0.00 in0.0 mm 0.00 in0.0 mm 0.00 in0.0 mm
02:10 AM 72.0°F22.2°C 65.8°F18.8°C 81% 5.3 mph NNE8.5 kmh NNE 9.8 mph15.8 kmh 29.31 in992.6 mb 0.00 in0.0 mm 0.00 in0.0 mm 0.00 in0.0 mm
02:15 AM 71.8°F22.1°C 66.0°F18.9°C 82% 1.8 mph NNE2.9 kmh NNE 4.9 mph7.9 kmh 29.30 in992.2 mb 0.00 in0.0 mm 0.00 in0.0 mm 0.00 in0.0 mm
02:20 AM 71.8°F22.1°C 66.2°F19.0°C 83% 3.8 mph N6.1 kmh N 9.8 mph15.8 kmh 29.30 in992.2 mb 0.00 in0.0 mm 0.00 in0.0 mm 0.00 in0.0 mm
02:25 AM 71.8°F22.1°C 66.5°F19.2°C 83% 2.6 mph N4.2 kmh N 7.4 mph11.9 kmh 29.30 in992.2 mb 0.00 in0.0 mm 0.00 in0.0 mm 0.00 in0.0 mm
02:30 AM 71.7°F22.1°C 66.6°F19.2°C 84% 3.3 mph N5.3 kmh N 7.4 mph11.9 kmh 29.30 in992.2 mb 0.00 in0.0 mm 0.00 in0.0 mm 0.00 in0.0 mm
02:35 AM 71.4°F21.9°C 66.3°F19.1°C 84% 2.5 mph N4.0 kmh N 7.4 mph11.9 kmh 29.30 in992.2 mb 0.00 in0.0 mm 0.00 in0.0 mm 0.00 in0.0 mm
02:40 AM 71.4°F21.9°C 66.3°F19.1°C 84% 4.6 mph NNE7.4 kmh NNE 7.4 mph11.9 kmh 29.30 in992.2 mb 0.00 in0.0 mm 0.00 in0.0 mm 0.00 in0.0 mm
02:45 AM 71.4°F21.9°C 66.2°F19.0°C 84% 3.1 mph NNE5.0 kmh NNE 4.9 mph7.9 kmh 29.30 in992.2 mb 0.00 in0.0 mm 0.00 in0.0 mm 0.00 in0.0 mm
02:50 AM 71.4°F21.9°C 65.9°F18.8°C 83% 2.7 mph NNE4.3 kmh NNE 4.9 mph7.9 kmh 29.30 in992.2 mb 0.00 in0.0 mm 0.00 in0.0 mm 0.00 in0.0 mm
02:55 AM 71.2°F21.8°C 65.6°F18.7°C 83% 3.2 mph N5.1 kmh N 7.4 mph11.9 kmh 29.30 in992.2 mb 0.00 in0.0 mm 0.00 in0.0 mm 0.00 in0.0 mm
03:00 AM 71.2°F21.8°C 65.4°F18.6°C 82% 3.5 mph N5.6 kmh N 4.9 mph7.9 kmh 29.30 in992.2 mb 0.00 in0.0 mm 0.00 in0.0 mm 0.00 in0.0 mm
03:05 AM 71.2°F21.8°C 64.9°F18.3°C 80% 2.7 mph NNW4.3 kmh NNW 4.9 mph7.9 kmh 29.30 in992.2 mb 0.00 in0.0 mm 0.00 in0.0 mm 0.00 in0.0 mm
03:10 AM 71.2°F21.8°C 65.1°F18.4°C 81% 2.7 mph NW4.3 kmh NW 4.9 mph7.9 kmh 29.30 in992.2 mb 0.00 in0.0 mm 0.00 in0.0 mm 0.00 in0.0 mm
03:15 AM 71.4°F21.9°C 65.6°F18.7°C 82% 2.4 mph N3.9 kmh N 4.9 mph7.9 kmh 29.30 in992.2 mb 0.00 in0.0 mm 0.00 in0.0 mm 0.00 in0.0 mm
03:20 AM 71.4°F21.9°C 65.6°F18.7°C 82% 3.3 mph N5.3 kmh N 7.4 mph11.9 kmh 29.29 in991.9 mb 0.00 in0.0 mm 0.00 in0.0 mm 0.00 in0.0 mm
03:25 AM 71.4°F21.9°C 65.4°F18.6°C 82% 2.9 mph N4.7 kmh N 7.4 mph11.9 kmh 29.29 in991.9 mb 0.00 in0.0 mm 0.00 in0.0 mm 0.00 in0.0 mm
03:30 AM 71.4°F21.9°C 65.3°F18.5°C 81% 3.1 mph N5.0 kmh N 4.9 mph7.9 kmh 29.29 in991.9 mb 0.00 in0.0 mm 0.00 in0.0 mm 0.00 in0.0 mm
03:35 AM 71.4°F21.9°C 65.1°F18.4°C 81% 2.9 mph N4.7 kmh N 7.4 mph11.9 kmh 29.29 in991.9 mb 0.00 in0.0 mm 0.00 in0.0 mm 0.00 in0.0 mm
03:40 AM 71.4°F21.9°C 64.8°F18.2°C 80% 3.7 mph N6.0 kmh N 7.4 mph11.9 kmh 29.29 in991.9 mb 0.00 in0.0 mm 0.00 in0.0 mm 0.00 in0.0 mm
03:45 AM 71.4°F21.9°C 65.3°F18.5°C 81% 2.6 mph N4.2 kmh N 4.9 mph7.9 kmh 29.29 in991.9 mb 0.00 in0.0 mm 0.00 in0.0 mm 0.00 in0.0 mm
03:50 AM 71.3°F21.8°C 65.2°F18.4°C 81% 2.2 mph N3.5 kmh N 4.9 mph7.9 kmh 29.29 in991.9 mb 0.00 in0.0 mm 0.00 in0.0 mm 0.00 in0.0 mm
03:55 AM 71.4°F21.9°C 65.1°F18.4°C 81% 3.2 mph NNE5.1 kmh NNE 9.8 mph15.8 kmh 29.29 in991.9 mb 0.00 in0.0 mm 0.00 in0.0 mm 0.00 in0.0 mm
04:00 AM 71.4°F21.9°C 64.7°F18.2°C 79% 3.4 mph NNE5.5 kmh NNE 7.4 mph11.9 kmh 29.29 in991.9 mb 0.00 in0.0 mm 0.00 in0.0 mm 0.00 in0.0 mm
04:05 AM 71.4°F21.9°C 64.9°F18.3°C 80% 4.4 mph NNW7.1 kmh NNW 9.8 mph15.8 kmh 29.29 in991.9 mb 0.00 in0.0 mm 0.00 in0.0 mm 0.00 in0.0 mm
04:10 AM 71.4°F21.9°C 64.9°F18.3°C 80% 3.4 mph N5.5 kmh N 4.9 mph7.9 kmh 29.28 in991.5 mb 0.00 in0.0 mm 0.00 in0.0 mm 0.00 in0.0 mm
04:15 AM 71.4°F21.9°C 65.1°F18.4°C 81% 3.8 mph NNE6.1 kmh NNE 7.4 mph11.9 kmh 29.29 in991.9 mb 0.00 in0.0 mm 0.00 in0.0 mm 0.00 in0.0 mm
04:20 AM 71.4°F21.9°C 65.2°F18.4°C 81% 2.9 mph NNE4.7 kmh NNE 7.4 mph11.9 kmh 29.29 in991.9 mb 0.00 in0.0 mm 0.00 in0.0 mm 0.00 in0.0 mm
04:25 AM 71.4°F21.9°C 65.2°F18.4°C 81% 2.5 mph NNW4.0 kmh NNW 4.9 mph7.9 kmh 29.29 in991.9 mb 0.00 in0.0 mm 0.00 in0.0 mm 0.00 in0.0 mm
04:30 AM 71.2°F21.8°C 65.1°F18.4°C 81% 3.5 mph NNW5.6 kmh NNW 7.4 mph11.9 kmh 29.29 in991.9 mb 0.00 in0.0 mm 0.00 in0.0 mm 0.00 in0.0 mm
04:35 AM 71.2°F21.8°C 65.2°F18.4°C 81% 2.8 mph N4.5 kmh N 7.4 mph11.9 kmh 29.28 in991.5 mb 0.00 in0.0 mm 0.00 in0.0 mm 0.00 in0.0 mm
04:40 AM 71.2°F21.8°C 65.4°F18.6°C 82% 3.9 mph NNW6.3 kmh NNW 7.4 mph11.9 kmh 29.29 in991.9 mb 0.00 in0.0 mm 0.00 in0.0 mm 0.00 in0.0 mm
04:45 AM 71.2°F21.8°C 65.4°F18.6°C 82% 3.3 mph NNW5.3 kmh NNW 7.4 mph11.9 kmh 29.29 in991.9 mb 0.00 in0.0 mm 0.00 in0.0 mm 0.00 in0.0 mm
04:50 AM 71.2°F21.8°C 65.4°F18.6°C 82% 3.0 mph N4.8 kmh N 7.4 mph11.9 kmh 29.29 in991.9 mb 0.00 in0.0 mm 0.00 in0.0 mm 0.00 in0.0 mm
04:55 AM 71.2°F21.8°C 65.4°F18.6°C 82% 1.7 mph 2.7 kmh 4.9 mph7.9 kmh 29.28 in991.5 mb 0.00 in0.0 mm 0.00 in0.0 mm 0.00 in0.0 mm
05:00 AM 71.2°F21.8°C 65.7°F18.7°C 83% 2.2 mph N3.5 kmh N 4.9 mph7.9 kmh 29.28 in991.5 mb 0.00 in0.0 mm 0.00 in0.0 mm 0.00 in0.0 mm
05:05 AM 71.2°F21.8°C 65.8°F18.8°C 83% 3.5 mph N5.6 kmh N 9.8 mph15.8 kmh 29.29 in991.9 mb 0.00 in0.0 mm 0.00 in0.0 mm 0.00 in0.0 mm
05:10 AM 71.2°F21.8°C 65.7°F18.7°C 83% 2.1 mph NNW3.4 kmh NNW 4.9 mph7.9 kmh 29.29 in991.9 mb 0.00 in0.0 mm 0.00 in0.0 mm 0.00 in0.0 mm
05:15 AM 71.1°F21.7°C 65.8°F18.8°C 83% 4.0 mph N6.4 kmh N 9.8 mph15.8 kmh 29.29 in991.9 mb 0.00 in0.0 mm 0.00 in0.0 mm 0.00 in0.0 mm
05:20 AM 71.1°F21.7°C 66.0°F18.9°C 84% 1.6 mph N2.6 kmh N 4.9 mph7.9 kmh 29.29 in991.9 mb 0.00 in0.0 mm 0.00 in0.0 mm 0.00 in0.0 mm
05:25 AM 71.1°F21.7°C 66.0°F18.9°C 84% 2.9 mph N4.7 kmh N 7.4 mph11.9 kmh 29.28 in991.5 mb 0.00 in0.0 mm 0.00 in0.0 mm 0.00 in0.0 mm
05:30 AM 71.1°F21.7°C 66.0°F18.9°C 84% 2.9 mph NNW4.7 kmh NNW 7.4 mph11.9 kmh 29.29 in991.9 mb 0.00 in0.0 mm 0.00 in0.0 mm 0.00 in0.0 mm
05:35 AM 71.1°F21.7°C 66.4°F19.1°C 85% 2.2 mph N3.5 kmh N 4.9 mph7.9 kmh 29.29 in991.9 mb 0.00 in0.0 mm 0.00 in0.0 mm 0.00 in0.0 mm
05:40 AM 71.0°F21.7°C 66.2°F19.0°C 85% 2.5 mph N4.0 kmh N 4.9 mph7.9 kmh 29.29 in991.9 mb 0.00 in0.0 mm 0.00 in0.0 mm 0.00 in0.0 mm
05:45 AM 70.9°F21.6°C 66.2°F19.0°C 85% 2.0 mph NNW3.2 kmh NNW 4.9 mph7.9 kmh 29.29 in991.9 mb 0.00 in0.0 mm 0.00 in0.0 mm 0.00 in0.0 mm
05:50 AM 70.9°F21.6°C 66.2°F19.0°C 85% 2.9 mph N4.7 kmh N 7.4 mph11.9 kmh 29.29 in991.9 mb 0.00 in0.0 mm 0.00 in0.0 mm 0.00 in0.0 mm
05:55 AM 71.0°F21.7°C 66.3°F19.1°C 85% 3.5 mph 5.6 kmh 4.9 mph7.9 kmh 29.29 in991.9 mb 0.00 in0.0 mm 0.00 in0.0 mm 0.00 in0.0 mm
06:00 AM 71.1°F21.7°C 66.4°F19.1°C 85% 2.4 mph N3.9 kmh N 4.9 mph7.9 kmh 29.29 in991.9 mb 0.00 in0.0 mm 0.00 in0.0 mm 0.00 in0.0 mm
06:05 AM 71.1°F21.7°C 66.4°F19.1°C 85% 1.8 mph NW2.9 kmh NW 7.4 mph11.9 kmh 29.29 in991.9 mb 0.00 in0.0 mm 0.00 in0.0 mm 0.00 in0.0 mm
06:10 AM 71.1°F21.7°C 66.6°F19.2°C 86% 2.0 mph N3.2 kmh N 4.9 mph7.9 kmh 29.29 in991.9 mb 0.00 in0.0 mm 0.00 in0.0 mm 0.00 in0.0 mm
06:15 AM 71.1°F21.7°C 66.7°F19.3°C 86% 2.9 mph N4.7 kmh N 7.4 mph11.9 kmh 29.30 in992.2 mb 0.00 in0.0 mm 0.00 in0.0 mm 0.00 in0.0 mm
06:20 AM 71.0°F21.7°C 66.6°F19.2°C 86% 1.7 mph NNW2.7 kmh NNW 4.9 mph7.9 kmh 29.30 in992.2 mb 0.00 in0.0 mm 0.00 in0.0 mm 0.00 in0.0 mm
06:25 AM 70.9°F21.6°C 66.6°F19.2°C 86% 1.1 mph NNW1.8 kmh NNW 2.5 mph4.0 kmh 29.30 in992.2 mb 0.00 in0.0 mm 0.00 in0.0 mm 0.00 in0.0 mm
06:30 AM 70.9°F21.6°C 66.8°F19.3°C 87% 1.9 mph NNW3.1 kmh NNW 4.9 mph7.9 kmh 29.30 in992.2 mb 0.00 in0.0 mm 0.00 in0.0 mm 0.00 in0.0 mm
06:35 AM 71.0°F21.7°C 66.9°F19.4°C 87% 4.1 mph N6.6 kmh N 4.9 mph7.9 kmh 29.30 in992.2 mb 0.00 in0.0 mm 0.00 in0.0 mm 0.00 in0.0 mm
06:40 AM 71.1°F21.7°C 67.0°F19.4°C 87% 1.6 mph N2.6 kmh N 4.9 mph7.9 kmh 29.31 in992.6 mb 0.00 in0.0 mm 0.00 in0.0 mm 0.00 in0.0 mm
06:45 AM 71.1°F21.7°C 67.0°F19.4°C 87% 2.5 mph NE4.0 kmh NE 4.9 mph7.9 kmh 29.31 in992.6 mb 0.00 in0.0 mm 0.00 in0.0 mm 0.00 in0.0 mm
06:50 AM 71.1°F21.7°C 66.7°F19.3°C 86% 2.5 mph NW4.0 kmh NW 7.4 mph11.9 kmh 29.31 in992.6 mb 0.00 in0.0 mm 0.00 in0.0 mm 0.00 in0.0 mm
06:55 AM 71.2°F21.8°C 66.8°F19.3°C 86% 1.7 mph N2.7 kmh N 4.9 mph7.9 kmh 29.31 in992.6 mb 0.00 in0.0 mm 0.00 in0.0 mm 0.00 in0.0 mm
07:00 AM 71.4°F21.9°C 66.8°F19.3°C 85% 2.8 mph N4.5 kmh N 4.9 mph7.9 kmh 29.31 in992.6 mb 0.00 in0.0 mm 0.00 in0.0 mm 0.00 in0.0 mm
07:05 AM 71.4°F21.9°C 66.5°F19.2°C 85% 3.3 mph N5.3 kmh N 7.4 mph11.9 kmh 29.32 in992.9 mb 0.00 in0.0 mm 0.00 in0.0 mm 0.00 in0.0 mm
07:10 AM 71.4°F21.9°C 66.3°F19.1°C 84% 4.1 mph NNE6.6 kmh NNE 9.8 mph15.8 kmh 29.31 in992.6 mb 0.00 in0.0 mm 0.00 in0.0 mm 0.00 in0.0 mm
07:15 AM 71.8°F22.1°C 66.6°F19.2°C 84% 2.5 mph NNE4.0 kmh NNE 7.4 mph11.9 kmh 29.32 in992.9 mb 0.00 in0.0 mm 0.00 in0.0 mm 0.00 in0.0 mm
07:20 AM 72.1°F22.3°C 66.6°F19.2°C 83% 4.5 mph N7.2 kmh N 12.3 mph19.8 kmh 29.33 in993.2 mb 0.00 in0.0 mm 0.00 in0.0 mm 0.00 in0.0 mm
07:25 AM 72.1°F22.3°C 66.5°F19.2°C 83% 3.8 mph N6.1 kmh N 7.4 mph11.9 kmh 29.32 in992.9 mb 0.00 in0.0 mm 0.00 in0.0 mm 0.00 in0.0 mm
07:30 AM 72.1°F22.3°C 66.2°F19.0°C 82% 5.4 mph N8.7 kmh N 7.4 mph11.9 kmh 29.33 in993.2 mb 0.00 in0.0 mm 0.00 in0.0 mm 0.00 in0.0 mm
07:35 AM 72.3°F22.4°C 66.2°F19.0°C 81% 5.6 mph NE9.0 kmh NE 9.8 mph15.8 kmh 29.32 in992.9 mb 0.00 in0.0 mm 0.00 in0.0 mm 0.00 in0.0 mm
07:40 AM 72.7°F22.6°C 66.4°F19.1°C 81% 4.0 mph N6.4 kmh N 7.4 mph11.9 kmh 29.32 in992.9 mb 0.00 in0.0 mm 0.00 in0.0 mm 0.00 in0.0 mm
07:45 AM 72.7°F22.6°C 66.2°F19.0°C 80% 3.8 mph N6.1 kmh N 9.8 mph15.8 kmh 29.32 in992.9 mb 0.00 in0.0 mm 0.00 in0.0 mm 0.00 in0.0 mm
07:50 AM 72.7°F22.6°C 65.9°F18.8°C 79% 4.3 mph N6.9 kmh N 9.8 mph15.8 kmh 29.33 in993.2 mb 0.00 in0.0 mm 0.00 in0.0 mm 0.00 in0.0 mm
07:55 AM 72.8°F22.7°C 65.9°F18.8°C 79% 6.3 mph N10.1 kmh N 12.3 mph19.8 kmh 29.32 in992.9 mb 0.00 in0.0 mm 0.00 in0.0 mm 0.00 in0.0 mm
08:00 AM 73.0°F22.8°C 66.2°F19.0°C 79% 4.6 mph NE7.4 kmh NE 9.8 mph15.8 kmh 29.32 in992.9 mb 0.00 in0.0 mm 0.00 in0.0 mm 0.00 in0.0 mm
08:05 AM 73.0°F22.8°C 66.3°F19.1°C 80% 3.6 mph N5.8 kmh N 9.8 mph15.8 kmh 29.33 in993.2 mb 0.00 in0.0 mm 0.00 in0.0 mm 0.00 in0.0 mm
08:10 AM 73.0°F22.8°C 66.1°F18.9°C 79% 5.2 mph N8.4 kmh N 9.8 mph15.8 kmh 29.33 in993.2 mb 0.00 in0.0 mm 0.00 in0.0 mm 0.00 in0.0 mm
08:15 AM 73.3°F22.9°C 66.4°F19.1°C 79% 4.0 mph N6.4 kmh N 9.8 mph15.8 kmh 29.33 in993.2 mb 0.00 in0.0 mm 0.00 in0.0 mm 0.00 in0.0 mm
08:20 AM 73.9°F23.3°C 66.7°F19.3°C 78% 6.2 mph NE10.0 kmh NE 15.0 mph24.1 kmh 29.33 in993.2 mb 0.00 in0.0 mm 0.00 in0.0 mm 0.00 in0.0 mm
08:25 AM 73.9°F23.3°C 66.6°F19.2°C 78% 6.0 mph NE9.7 kmh NE 9.8 mph15.8 kmh 29.33 in993.2 mb 0.00 in0.0 mm 0.00 in0.0 mm 0.00 in0.0 mm
08:30 AM 73.9°F23.3°C 66.6°F19.2°C 78% 5.7 mph N9.2 kmh N 12.3 mph19.8 kmh 29.32 in992.9 mb 0.00 in0.0 mm 0.00 in0.0 mm 0.00 in0.0 mm
08:35 AM 73.9°F23.3°C 66.8°F19.3°C 78% 5.5 mph NNE8.9 kmh NNE 9.8 mph15.8 kmh 29.33 in993.2 mb 0.00 in0.0 mm 0.00 in0.0 mm 0.00 in0.0 mm
08:40 AM 74.1°F23.4°C 67.2°F19.6°C 79% 4.5 mph N7.2 kmh N 9.8 mph15.8 kmh 29.33 in993.2 mb 0.00 in0.0 mm 0.00 in0.0 mm 0.00 in0.0 mm
08:45 AM 74.1°F23.4°C 67.2°F19.6°C 79% 5.8 mph NE9.3 kmh NE 12.3 mph19.8 kmh 29.33 in993.2 mb 0.00 in0.0 mm 0.00 in0.0 mm 0.00 in0.0 mm
08:50 AM 74.1°F23.4°C 67.2°F19.6°C 79% 5.0 mph NE8.0 kmh NE 7.4 mph11.9 kmh 29.33 in993.2 mb 0.00 in0.0 mm 0.00 in0.0 mm 0.00 in0.0 mm
08:55 AM 74.2°F23.4°C 67.3°F19.6°C 79% 8.1 mph NNE13.0 kmh NNE 15.0 mph24.1 kmh 29.33 in993.2 mb 0.00 in0.0 mm 0.00 in0.0 mm 0.00 in0.0 mm
09:00 AM 74.5°F23.6°C 67.5°F19.7°C 79% 5.1 mph N8.2 kmh N 12.3 mph19.8 kmh 29.34 in993.6 mb 0.00 in0.0 mm 0.00 in0.0 mm 0.00 in0.0 mm
09:05 AM 74.5°F23.6°C 67.1°F19.5°C 78% 4.9 mph N7.9 kmh N 7.4 mph11.9 kmh 29.34 in993.6 mb 0.00 in0.0 mm 0.00 in0.0 mm 0.00 in0.0 mm
09:10 AM 74.6°F23.7°C 67.0°F19.4°C 77% 7.8 mph N12.6 kmh N 15.0 mph24.1 kmh 29.34 in993.6 mb 0.00 in0.0 mm 0.00 in0.0 mm 0.00 in0.0 mm
09:15 AM 74.8°F23.8°C 67.1°F19.5°C 77% 8.4 mph N13.5 kmh N 15.0 mph24.1 kmh 29.34 in993.6 mb 0.00 in0.0 mm 0.00 in0.0 mm 0.00 in0.0 mm
09:20 AM 75.2°F24.0°C 67.5°F19.7°C 77% 5.7 mph NE9.2 kmh NE 9.8 mph15.8 kmh 29.34 in993.6 mb 0.00 in0.0 mm 0.00 in0.0 mm 0.00 in0.0 mm
09:25 AM 75.2°F24.0°C 67.4°F19.7°C 77% 4.7 mph NNE7.6 kmh NNE 9.8 mph15.8 kmh 29.33 in993.2 mb 0.00 in0.0 mm 0.00 in0.0 mm 0.00 in0.0 mm
09:30 AM 75.2°F24.0°C 67.1°F19.5°C 76% 3.4 mph NW5.5 kmh NW 7.4 mph11.9 kmh 29.34 in993.6 mb 0.00 in0.0 mm 0.00 in0.0 mm 0.00 in0.0 mm
09:35 AM 75.4°F24.1°C 66.9°F19.4°C 75% 4.6 mph NW7.4 kmh NW 12.3 mph19.8 kmh 29.34 in993.6 mb 0.00 in0.0 mm 0.00 in0.0 mm 0.00 in0.0 mm
09:40 AM 75.9°F24.4°C 67.4°F19.7°C 75% 6.2 mph NNE10.0 kmh NNE 15.0 mph24.1 kmh 29.34 in993.6 mb 0.00 in0.0 mm 0.00 in0.0 mm 0.00 in0.0 mm
09:45 AM 75.9°F24.4°C 67.4°F19.7°C 75% 6.3 mph 10.1 kmh 12.3 mph19.8 kmh 29.34 in993.6 mb 0.00 in0.0 mm 0.00 in0.0 mm 0.00 in0.0 mm
09:50 AM 75.9°F24.4°C 67.3°F19.6°C 75% 4.6 mph NE7.4 kmh NE 9.8 mph15.8 kmh 29.34 in993.6 mb 0.00 in0.0 mm 0.00 in0.0 mm 0.00 in0.0 mm
09:55 AM 75.9°F24.4°C 67.2°F19.6°C 75% 5.9 mph NNW9.5 kmh NNW 12.3 mph19.8 kmh 29.34 in993.6 mb 0.00 in0.0 mm 0.00 in0.0 mm 0.00 in0.0 mm
10:00 AM 76.2°F24.6°C 67.4°F19.7°C 74% 7.1 mph N11.4 kmh N 12.3 mph19.8 kmh 29.34 in993.6 mb 0.00 in0.0 mm 0.00 in0.0 mm 0.00 in0.0 mm
10:05 AM 76.1°F24.5°C 67.6°F19.8°C 75% 5.4 mph N8.7 kmh N 9.8 mph15.8 kmh 29.34 in993.6 mb 0.00 in0.0 mm 0.00 in0.0 mm 0.00 in0.0 mm
10:10 AM 76.3°F24.6°C 67.6°F19.8°C 74% 5.9 mph N9.5 kmh N 9.8 mph15.8 kmh 29.34 in993.6 mb 0.00 in0.0 mm 0.00 in0.0 mm 0.00 in0.0 mm
10:15 AM 76.3°F24.6°C 67.4°F19.7°C 74% 5.0 mph N8.0 kmh N 9.8 mph15.8 kmh 29.34 in993.6 mb 0.00 in0.0 mm 0.00 in0.0 mm 0.00 in0.0 mm
10:20 AM 76.8°F24.9°C 68.1°F20.1°C 75% 4.0 mph NW6.4 kmh NW 7.4 mph11.9 kmh 29.34 in993.6 mb 0.00 in0.0 mm 0.00 in0.0 mm 0.00 in0.0 mm
10:25 AM 76.8°F24.9°C 67.9°F19.9°C 74% 7.0 mph NE11.3 kmh NE 17.4 mph28.0 kmh 29.34 in993.6 mb 0.00 in0.0 mm 0.00 in0.0 mm 0.00 in0.0 mm
10:30 AM 76.8°F24.9°C 67.9°F19.9°C 74% 6.1 mph NNW9.8 kmh NNW 15.0 mph24.1 kmh 29.34 in993.6 mb 0.00 in0.0 mm 0.00 in0.0 mm 0.00 in0.0 mm
10:35 AM 76.8°F24.9°C 68.0°F20.0°C 74% 5.9 mph NNW9.5 kmh NNW 9.8 mph15.8 kmh 29.34 in993.6 mb 0.00 in0.0 mm 0.00 in0.0 mm 0.00 in0.0 mm
10:40 AM 77.2°F25.1°C 68.2°F20.1°C 74% 5.3 mph NW8.5 kmh NW 9.8 mph15.8 kmh 29.34 in993.6 mb 0.00 in0.0 mm 0.00 in0.0 mm 0.00 in0.0 mm
10:45 AM 77.2°F25.1°C 68.0°F20.0°C 73% 4.7 mph N7.6 kmh N 7.4 mph11.9 kmh 29.34 in993.6 mb 0.00 in0.0 mm 0.00 in0.0 mm 0.00 in0.0 mm
10:50 AM 77.2°F25.1°C 67.7°F19.8°C 73% 6.9 mph N11.1 kmh N 15.0 mph24.1 kmh 29.34 in993.6 mb 0.00 in0.0 mm 0.00 in0.0 mm 0.00 in0.0 mm
10:55 AM 77.2°F25.1°C 67.5°F19.7°C 72% 6.5 mph NNW10.5 kmh NNW 15.0 mph24.1 kmh 29.33 in993.2 mb 0.00 in0.0 mm 0.00 in0.0 mm 0.00 in0.0 mm
11:00 AM 77.2°F25.1°C 67.7°F19.8°C 73% 4.2 mph N6.8 kmh N 9.8 mph15.8 kmh 29.34 in993.6 mb 0.00 in0.0 mm 0.00 in0.0 mm 0.00 in0.0 mm
11:05 AM 77.2°F25.1°C 67.2°F19.6°C 71% 4.5 mph N7.2 kmh N 7.4 mph11.9 kmh 29.33 in993.2 mb 0.00 in0.0 mm 0.00 in0.0 mm 0.00 in0.0 mm
11:10 AM 77.4°F25.2°C 67.1°F19.5°C 71% 4.7 mph N7.6 kmh N 9.8 mph15.8 kmh 29.34 in993.6 mb 0.00 in0.0 mm 0.00 in0.0 mm 0.00 in0.0 mm
11:15 AM 77.5°F25.3°C 67.2°F19.6°C 71% 7.2 mph NE11.6 kmh NE 15.0 mph24.1 kmh 29.33 in993.2 mb 0.00 in0.0 mm 0.00 in0.0 mm 0.00 in0.0 mm
11:20 AM 77.4°F25.2°C 67.1°F19.5°C 70% 5.9 mph N9.5 kmh N 12.3 mph19.8 kmh 29.32 in992.9 mb 0.00 in0.0 mm 0.00 in0.0 mm 0.00 in0.0 mm
11:25 AM 77.5°F25.3°C 66.9°F19.4°C 70% 7.0 mph 11.3 kmh 12.3 mph19.8 kmh 29.33 in993.2 mb 0.00 in0.0 mm 0.00 in0.0 mm 0.00 in0.0 mm
11:30 AM 77.5°F25.3°C 66.7°F19.3°C 70% 5.6 mph N9.0 kmh N 15.0 mph24.1 kmh 29.33 in993.2 mb 0.00 in0.0 mm 0.00 in0.0 mm 0.00 in0.0 mm
11:35 AM 77.7°F25.4°C 66.6°F19.2°C 69% 5.0 mph N8.0 kmh N 9.8 mph15.8 kmh 29.33 in993.2 mb 0.00 in0.0 mm 0.00 in0.0 mm 0.00 in0.0 mm
11:40 AM 79.0°F26.1°C 67.3°F19.6°C 68% 7.9 mph NE12.7 kmh NE 15.0 mph24.1 kmh 29.33 in993.2 mb 0.00 in0.0 mm 0.00 in0.0 mm 0.00 in0.0 mm
11:45 AM 79.0°F26.1°C 67.4°F19.7°C 68% 7.6 mph NNW12.2 kmh NNW 15.0 mph24.1 kmh 29.32 in992.9 mb 0.00 in0.0 mm 0.00 in0.0 mm 0.00 in0.0 mm
11:50 AM 79.0°F26.1°C 67.5°F19.7°C 68% 6.1 mph NNE9.8 kmh NNE 15.0 mph24.1 kmh 29.32 in992.9 mb 0.00 in0.0 mm 0.00 in0.0 mm 0.00 in0.0 mm
11:55 AM 79.0°F26.1°C 67.5°F19.7°C 68% 7.2 mph NNW11.6 kmh NNW 15.0 mph24.1 kmh 29.32 in992.9 mb 0.00 in0.0 mm 0.00 in0.0 mm 0.00 in0.0 mm
12:00 PM 79.0°F26.1°C 67.8°F19.9°C 69% 5.9 mph NNE9.5 kmh NNE 9.8 mph15.8 kmh 29.32 in992.9 mb 0.00 in0.0 mm 0.00 in0.0 mm 0.00 in0.0 mm
12:05 PM 79.0°F26.1°C 68.1°F20.1°C 69% 5.1 mph N8.2 kmh N 12.3 mph19.8 kmh 29.31 in992.6 mb 0.00 in0.0 mm 0.00 in0.0 mm 0.00 in0.0 mm
12:10 PM 78.9°F26.1°C 68.1°F20.1°C 70% 5.0 mph NE8.0 kmh NE 12.3 mph19.8 kmh 29.31 in992.6 mb 0.00 in0.0 mm 0.00 in0.0 mm 0.00 in0.0 mm
12:15 PM 78.8°F26.0°C 67.7°F19.8°C 69% 7.3 mph NNW11.7 kmh NNW 12.3 mph19.8 kmh 29.32 in992.9 mb 0.00 in0.0 mm 0.00 in0.0 mm 0.00 in0.0 mm
12:20 PM 78.8°F26.0°C 67.8°F19.9°C 69% 7.4 mph N11.9 kmh N 17.4 mph28.0 kmh 29.31 in992.6 mb 0.00 in0.0 mm 0.00 in0.0 mm 0.00 in0.0 mm
12:25 PM 78.8°F26.0°C 68.1°F20.1°C 70% 5.8 mph NNE9.3 kmh NNE 9.8 mph15.8 kmh 29.31 in992.6 mb 0.00 in0.0 mm 0.00 in0.0 mm 0.00 in0.0 mm
12:30 PM 78.8°F26.0°C 68.0°F20.0°C 70% 4.6 mph N7.4 kmh N 12.3 mph19.8 kmh 29.31 in992.6 mb 0.00 in0.0 mm 0.00 in0.0 mm 0.00 in0.0 mm
12:35 PM 78.8°F26.0°C 67.8°F19.9°C 69% 4.0 mph NW6.4 kmh NW 7.4 mph11.9 kmh 29.31 in992.6 mb 0.00 in0.0 mm 0.00 in0.0 mm 0.00 in0.0 mm
12:40 PM 78.9°F26.1°C 67.9°F19.9°C 69% 6.1 mph N9.8 kmh N 12.3 mph19.8 kmh 29.31 in992.6 mb 0.00 in0.0 mm 0.00 in0.0 mm 0.00 in0.0 mm
12:45 PM 78.9°F26.1°C 67.9°F19.9°C 69% 9.3 mph N15.0 kmh N 15.0 mph24.1 kmh 29.31 in992.6 mb 0.00 in0.0 mm 0.00 in0.0 mm 0.00 in0.0 mm
12:50 PM 78.8°F26.0°C 68.0°F20.0°C 70% 5.3 mph N8.5 kmh N 12.3 mph19.8 kmh 29.31 in992.6 mb 0.00 in0.0 mm 0.00 in0.0 mm 0.00 in0.0 mm
12:55 PM 79.0°F26.1°C 67.8°F19.9°C 69% 4.6 mph NNW7.4 kmh NNW 9.8 mph15.8 kmh 29.31 in992.6 mb 0.00 in0.0 mm 0.00 in0.0 mm 0.00 in0.0 mm
01:00 PM 79.2°F26.2°C 67.7°F19.8°C 68% 6.5 mph NE10.5 kmh NE 15.0 mph24.1 kmh 29.31 in992.6 mb 0.00 in0.0 mm 0.00 in0.0 mm 0.00 in0.0 mm
01:05 PM 79.2°F26.2°C 68.1°F20.1°C 69% 5.8 mph N9.3 kmh N 9.8 mph15.8 kmh 29.31 in992.6 mb 0.00 in0.0 mm 0.00 in0.0 mm 0.00 in0.0 mm
01:10 PM 79.3°F26.3°C 68.0°F20.0°C 69% 3.5 mph N5.6 kmh N 12.3 mph19.8 kmh 29.30 in992.2 mb 0.00 in0.0 mm 0.00 in0.0 mm 0.00 in0.0 mm
01:15 PM 79.4°F26.3°C 67.5°F19.7°C 67% 5.2 mph N8.4 kmh N 7.4 mph11.9 kmh 29.30 in992.2 mb 0.00 in0.0 mm 0.00 in0.0 mm 0.00 in0.0 mm
01:20 PM 79.7°F26.5°C 67.7°F19.8°C 67% 5.9 mph N9.5 kmh N 9.8 mph15.8 kmh 29.30 in992.2 mb 0.00 in0.0 mm 0.00 in0.0 mm 0.00 in0.0 mm
01:25 PM 79.9°F26.6°C 67.5°F19.7°C 66% 4.9 mph N7.9 kmh N 9.8 mph15.8 kmh 29.31 in992.6 mb 0.00 in0.0 mm 0.00 in0.0 mm 0.00 in0.0 mm
01:30 PM 80.1°F26.7°C 66.6°F19.2°C 64% 5.7 mph NE9.2 kmh NE 12.3 mph19.8 kmh 29.31 in992.6 mb 0.00 in0.0 mm 0.00 in0.0 mm 0.00 in0.0 mm
01:35 PM 80.3°F26.8°C 66.3°F19.1°C 63% 6.0 mph NNE9.7 kmh NNE 15.0 mph24.1 kmh 29.30 in992.2 mb 0.00 in0.0 mm 0.00 in0.0 mm 0.00 in0.0 mm
01:40 PM 80.9°F27.2°C 66.5°F19.2°C 62% 7.9 mph NNE12.7 kmh NNE 22.4 mph36.0 kmh 29.30 in992.2 mb 0.00 in0.0 mm 0.00 in0.0 mm 0.00 in0.0 mm
01:45 PM 81.4°F27.4°C 67.1°F19.5°C 62% 6.0 mph NNE9.7 kmh NNE 12.3 mph19.8 kmh 29.30 in992.2 mb 0.00 in0.0 mm 0.00 in0.0 mm 0.00 in0.0 mm
01:50 PM 81.5°F27.5°C 66.9°F19.4°C 61% 6.2 mph ENE10.0 kmh ENE 15.0 mph24.1 kmh 29.30 in992.2 mb 0.00 in0.0 mm 0.00 in0.0 mm 0.00 in0.0 mm
01:55 PM 81.5°F27.5°C 67.4°F19.7°C 62% 5.2 mph NNE8.4 kmh NNE 7.4 mph11.9 kmh 29.30 in992.2 mb 0.00 in0.0 mm 0.00 in0.0 mm 0.00 in0.0 mm
02:00 PM 81.4°F27.4°C 67.5°F19.7°C 63% 4.7 mph NE7.6 kmh NE 9.8 mph15.8 kmh 29.30 in992.2 mb 0.00 in0.0 mm 0.00 in0.0 mm 0.00 in0.0 mm
02:05 PM 81.3°F27.4°C 67.0°F19.4°C 62% 4.9 mph N7.9 kmh N 7.4 mph11.9 kmh 29.30 in992.2 mb 0.00 in0.0 mm 0.00 in0.0 mm 0.00 in0.0 mm
02:10 PM 81.3°F27.4°C 67.3°F19.6°C 63% 4.0 mph NNE6.4 kmh NNE 9.8 mph15.8 kmh 29.30 in992.2 mb 0.00 in0.0 mm 0.00 in0.0 mm 0.00 in0.0 mm
02:15 PM 81.3°F27.4°C 67.4°F19.7°C 63% 5.5 mph N8.9 kmh N 9.8 mph15.8 kmh 29.30 in992.2 mb 0.00 in0.0 mm 0.00 in0.0 mm 0.00 in0.0 mm
02:20 PM 81.2°F27.3°C 67.0°F19.4°C 62% 6.0 mph NW9.7 kmh NW 15.0 mph24.1 kmh 29.30 in992.2 mb 0.00 in0.0 mm 0.00 in0.0 mm 0.00 in0.0 mm
02:25 PM 81.1°F27.3°C 67.0°F19.4°C 62% 6.8 mph ENE10.9 kmh ENE 12.3 mph19.8 kmh 29.29 in991.9 mb 0.00 in0.0 mm 0.00 in0.0 mm 0.00 in0.0 mm
02:30 PM 81.0°F27.2°C 66.8°F19.3°C 62% 6.6 mph N10.6 kmh N 12.3 mph19.8 kmh 29.29 in991.9 mb 0.00 in0.0 mm 0.00 in0.0 mm 0.00 in0.0 mm
02:35 PM 81.0°F27.2°C 66.5°F19.2°C 62% 7.8 mph NNE12.6 kmh NNE 15.0 mph24.1 kmh 29.29 in991.9 mb 0.00 in0.0 mm 0.00 in0.0 mm 0.00 in0.0 mm
02:40 PM 81.0°F27.2°C 65.8°F18.8°C 60% 4.9 mph N7.9 kmh N 7.4 mph11.9 kmh 29.28 in991.5 mb 0.00 in0.0 mm 0.00 in0.0 mm 0.00 in0.0 mm
02:45 PM 81.0°F27.2°C 65.8°F18.8°C 60% 7.0 mph NNE11.3 kmh NNE 24.8 mph39.9 kmh 29.29 in991.9 mb 0.00 in0.0 mm 0.00 in0.0 mm 0.00 in0.0 mm
02:50 PM 80.8°F27.1°C 65.6°F18.7°C 60% 6.4 mph N10.3 kmh N 15.0 mph24.1 kmh 29.28 in991.5 mb 0.00 in0.0 mm 0.00 in0.0 mm 0.00 in0.0 mm
02:55 PM 80.8°F27.1°C 65.6°F18.7°C 60% 7.0 mph N11.3 kmh N 15.0 mph24.1 kmh 29.29 in991.9 mb 0.00 in0.0 mm 0.00 in0.0 mm 0.00 in0.0 mm
03:00 PM 80.8°F27.1°C 65.6°F18.7°C 60% 9.6 mph NNE15.4 kmh NNE 17.4 mph28.0 kmh 29.29 in991.9 mb 0.00 in0.0 mm 0.00 in0.0 mm 0.00 in0.0 mm
03:05 PM 80.6°F27.0°C 65.3°F18.5°C 60% 6.4 mph NNE10.3 kmh NNE 15.0 mph24.1 kmh 29.29 in991.9 mb 0.00 in0.0 mm 0.00 in0.0 mm 0.00 in0.0 mm
03:10 PM 80.6°F27.0°C 64.7°F18.2°C 58% 7.3 mph N11.7 kmh N 15.0 mph24.1 kmh 29.28 in991.5 mb 0.00 in0.0 mm 0.00 in0.0 mm 0.00 in0.0 mm
03:15 PM 80.8°F27.1°C 64.3°F17.9°C 57% 5.6 mph NNW9.0 kmh NNW 9.8 mph15.8 kmh 29.28 in991.5 mb 0.00 in0.0 mm 0.00 in0.0 mm 0.00 in0.0 mm
03:20 PM 81.2°F27.3°C 64.1°F17.8°C 56% 9.8 mph N15.8 kmh N 17.4 mph28.0 kmh 29.28 in991.5 mb 0.00 in0.0 mm 0.00 in0.0 mm 0.00 in0.0 mm
03:25 PM 81.8°F27.7°C 64.6°F18.1°C 56% 6.9 mph NNE11.1 kmh NNE 12.3 mph19.8 kmh 29.28 in991.5 mb 0.00 in0.0 mm 0.00 in0.0 mm 0.00 in0.0 mm
03:30 PM 81.7°F27.6°C 64.4°F18.0°C 56% 10.1 mph N16.3 kmh N 19.9 mph32.0 kmh 29.28 in991.5 mb 0.00 in0.0 mm 0.00 in0.0 mm 0.00 in0.0 mm
03:35 PM 81.7°F27.6°C 64.2°F17.9°C 56% 6.7 mph NNE10.8 kmh NNE 15.0 mph24.1 kmh 29.28 in991.5 mb 0.00 in0.0 mm 0.00 in0.0 mm 0.00 in0.0 mm
03:40 PM 81.7°F27.6°C 64.0°F17.8°C 55% 5.6 mph NNE9.0 kmh NNE 7.4 mph11.9 kmh 29.28 in991.5 mb 0.00 in0.0 mm 0.00 in0.0 mm 0.00 in0.0 mm
03:45 PM 82.8°F28.2°C 64.5°F18.1°C 54% 5.7 mph NE9.2 kmh NE 12.3 mph19.8 kmh 29.27 in991.2 mb 0.00 in0.0 mm 0.00 in0.0 mm 0.00 in0.0 mm
03:50 PM 82.8°F28.2°C 64.6°F18.1°C 54% 6.7 mph NE10.8 kmh NE 12.3 mph19.8 kmh 29.27 in991.2 mb 0.00 in0.0 mm 0.00 in0.0 mm 0.00 in0.0 mm
03:55 PM 82.6°F28.1°C 64.4°F18.0°C 54% 5.4 mph N8.7 kmh N 9.8 mph15.8 kmh 29.27 in991.2 mb 0.00 in0.0 mm 0.00 in0.0 mm 0.00 in0.0 mm
04:00 PM 82.4°F28.0°C 64.9°F18.3°C 56% 4.4 mph NNE7.1 kmh NNE 9.8 mph15.8 kmh 29.27 in991.2 mb 0.00 in0.0 mm 0.00 in0.0 mm 0.00 in0.0 mm
04:05 PM 81.9°F27.7°C 64.6°F18.1°C 56% 4.9 mph NE7.9 kmh NE 9.8 mph15.8 kmh 29.27 in991.2 mb 0.00 in0.0 mm 0.00 in0.0 mm 0.00 in0.0 mm
04:10 PM 81.7°F27.6°C 64.7°F18.2°C 56% 5.5 mph N8.9 kmh N 9.8 mph15.8 kmh 29.27 in991.2 mb 0.00 in0.0 mm 0.00 in0.0 mm 0.00 in0.0 mm
04:15 PM 81.7°F27.6°C 65.5°F18.6°C 58% 4.2 mph NE6.8 kmh NE 7.4 mph11.9 kmh 29.27 in991.2 mb 0.00 in0.0 mm 0.00 in0.0 mm 0.00 in0.0 mm
04:20 PM 81.7°F27.6°C 64.8°F18.2°C 57% 4.6 mph NNE7.4 kmh NNE 9.8 mph15.8 kmh 29.27 in991.2 mb 0.00 in0.0 mm 0.00 in0.0 mm 0.00 in0.0 mm
04:25 PM 81.5°F27.5°C 64.2°F17.9°C 56% 5.3 mph N8.5 kmh N 12.3 mph19.8 kmh 29.27 in991.2 mb 0.00 in0.0 mm 0.00 in0.0 mm 0.00 in0.0 mm
04:30 PM 81.5°F27.5°C 64.6°F18.1°C 57% 5.2 mph NE8.4 kmh NE 15.0 mph24.1 kmh 29.27 in991.2 mb 0.00 in0.0 mm 0.00 in0.0 mm 0.00 in0.0 mm
04:35 PM 81.5°F27.5°C 65.1°F18.4°C 58% 2.8 mph NNE4.5 kmh NNE 4.9 mph7.9 kmh 29.27 in991.2 mb 0.00 in0.0 mm 0.00 in0.0 mm 0.00 in0.0 mm
04:40 PM 81.5°F27.5°C 65.3°F18.5°C 58% 3.2 mph N5.1 kmh N 7.4 mph11.9 kmh 29.27 in991.2 mb 0.00 in0.0 mm 0.00 in0.0 mm 0.00 in0.0 mm
04:45 PM 81.3°F27.4°C 64.7°F18.2°C 57% 4.2 mph N6.8 kmh N 7.4 mph11.9 kmh 29.27 in991.2 mb 0.00 in0.0 mm 0.00 in0.0 mm 0.00 in0.0 mm
04:50 PM 81.3°F27.4°C 65.1°F18.4°C 58% 2.7 mph ENE4.3 kmh ENE 7.4 mph11.9 kmh 29.27 in991.2 mb 0.00 in0.0 mm 0.00 in0.0 mm 0.00 in0.0 mm
04:55 PM 81.3°F27.4°C 65.1°F18.4°C 58% 3.6 mph NE5.8 kmh NE 7.4 mph11.9 kmh 29.27 in991.2 mb 0.00 in0.0 mm 0.00 in0.0 mm 0.00 in0.0 mm
05:00 PM 81.3°F27.4°C 65.4°F18.6°C 59% 2.4 mph N3.9 kmh N 4.9 mph7.9 kmh 29.26 in990.9 mb 0.00 in0.0 mm 0.00 in0.0 mm 0.00 in0.0 mm
05:05 PM 81.3°F27.4°C 65.5°F18.6°C 59% 3.5 mph N5.6 kmh N 7.4 mph11.9 kmh 29.27 in991.2 mb 0.00 in0.0 mm 0.00 in0.0 mm 0.00 in0.0 mm
05:10 PM 81.3°F27.4°C 65.1°F18.4°C 58% 3.5 mph N5.6 kmh N 7.4 mph11.9 kmh 29.27 in991.2 mb 0.00 in0.0 mm 0.00 in0.0 mm 0.00 in0.0 mm
05:15 PM 81.3°F27.4°C 65.1°F18.4°C 58% 2.4 mph NE3.9 kmh NE 4.9 mph7.9 kmh 29.27 in991.2 mb 0.00 in0.0 mm 0.00 in0.0 mm 0.00 in0.0 mm
05:20 PM 81.3°F27.4°C 65.1°F18.4°C 58% 2.1 mph N3.4 kmh N 4.9 mph7.9 kmh 29.27 in991.2 mb 0.00 in0.0 mm 0.00 in0.0 mm 0.00 in0.0 mm
05:25 PM 81.3°F27.4°C 65.1°F18.4°C 58% 4.5 mph NE7.2 kmh NE 7.4 mph11.9 kmh 29.27 in991.2 mb 0.00 in0.0 mm 0.00 in0.0 mm 0.00 in0.0 mm
05:30 PM 81.3°F27.4°C 64.9°F18.3°C 58% 2.4 mph NE3.9 kmh NE 7.4 mph11.9 kmh 29.27 in991.2 mb 0.00 in0.0 mm 0.00 in0.0 mm 0.00 in0.0 mm
05:35 PM 81.3°F27.4°C 65.0°F18.3°C 58% 2.3 mph N3.7 kmh N 4.9 mph7.9 kmh 29.27 in991.2 mb 0.00 in0.0 mm 0.00 in0.0 mm 0.00 in0.0 mm
05:40 PM 81.3°F27.4°C 65.1°F18.4°C 58% 4.9 mph N7.9 kmh N 12.3 mph19.8 kmh 29.27 in991.2 mb 0.00 in0.0 mm 0.00 in0.0 mm 0.00 in0.0 mm
05:45 PM 81.3°F27.4°C 64.7°F18.2°C 57% 4.3 mph NE6.9 kmh NE 7.4 mph11.9 kmh 29.27 in991.2 mb 0.00 in0.0 mm 0.00 in0.0 mm 0.00 in0.0 mm
05:50 PM 81.3°F27.4°C 64.9°F18.3°C 58% 3.9 mph N6.3 kmh N 7.4 mph11.9 kmh 29.27 in991.2 mb 0.00 in0.0 mm 0.00 in0.0 mm 0.00 in0.0 mm
05:55 PM 81.2°F27.3°C 65.2°F18.4°C 58% 2.1 mph NE3.4 kmh NE 7.4 mph11.9 kmh 29.28 in991.5 mb 0.00 in0.0 mm 0.00 in0.0 mm 0.00 in0.0 mm
06:00 PM 81.1°F27.3°C 65.7°F18.7°C 60% 3.6 mph NE5.8 kmh NE 12.3 mph19.8 kmh 29.28 in991.5 mb 0.00 in0.0 mm 0.00 in0.0 mm 0.00 in0.0 mm
06:05 PM 80.9°F27.2°C 65.7°F18.7°C 60% 3.0 mph NE4.8 kmh NE 9.8 mph15.8 kmh 29.28 in991.5 mb 0.00 in0.0 mm 0.00 in0.0 mm 0.00 in0.0 mm
06:10 PM 80.8°F27.1°C 65.4°F18.6°C 60% 3.2 mph NE5.1 kmh NE 7.4 mph11.9 kmh 29.28 in991.5 mb 0.00 in0.0 mm 0.00 in0.0 mm 0.00 in0.0 mm
06:15 PM 80.8°F27.1°C 65.4°F18.6°C 60% 4.0 mph NNE6.4 kmh NNE 9.8 mph15.8 kmh 29.28 in991.5 mb 0.00 in0.0 mm 0.00 in0.0 mm 0.00 in0.0 mm
06:20 PM 80.7°F27.1°C 66.1°F18.9°C 61% 2.7 mph NE4.3 kmh NE 7.4 mph11.9 kmh 29.28 in991.5 mb 0.00 in0.0 mm 0.00 in0.0 mm 0.00 in0.0 mm
06:25 PM 79.8°F26.6°C 65.9°F18.8°C 62% 4.8 mph NE7.7 kmh NE 7.4 mph11.9 kmh 29.28 in991.5 mb 0.00 in0.0 mm 0.00 in0.0 mm 0.00 in0.0 mm
06:30 PM 79.3°F26.3°C 65.6°F18.7°C 63% 4.2 mph ENE6.8 kmh ENE 9.8 mph15.8 kmh 29.28 in991.5 mb 0.00 in0.0 mm 0.00 in0.0 mm 0.00 in0.0 mm
06:35 PM 79.3°F26.3°C 65.7°F18.7°C 63% 3.8 mph NE6.1 kmh NE 7.4 mph11.9 kmh 29.28 in991.5 mb 0.00 in0.0 mm 0.00 in0.0 mm 0.00 in0.0 mm
06:40 PM 79.3°F26.3°C 66.2°F19.0°C 64% 3.2 mph E5.1 kmh E 7.4 mph11.9 kmh 29.28 in991.5 mb 0.00 in0.0 mm 0.00 in0.0 mm 0.00 in0.0 mm
06:45 PM 78.9°F26.1°C 66.3°F19.1°C 66% 3.2 mph NE5.1 kmh NE 7.4 mph11.9 kmh 29.28 in991.5 mb 0.00 in0.0 mm 0.00 in0.0 mm 0.00 in0.0 mm
06:50 PM 78.6°F25.9°C 66.3°F19.1°C 66% 2.8 mph NNE4.5 kmh NNE 7.4 mph11.9 kmh 29.28 in991.5 mb 0.00 in0.0 mm 0.00 in0.0 mm 0.00 in0.0 mm
06:55 PM 78.6°F25.9°C 66.1°F18.9°C 66% 5.7 mph ENE9.2 kmh ENE 9.8 mph15.8 kmh 29.29 in991.9 mb 0.00 in0.0 mm 0.00 in0.0 mm 0.00 in0.0 mm
07:00 PM 78.6°F25.9°C 66.0°F18.9°C 66% 3.1 mph NNE5.0 kmh NNE 7.4 mph11.9 kmh 29.28 in991.5 mb 0.00 in0.0 mm 0.00 in0.0 mm 0.00 in0.0 mm
07:05 PM 78.0°F25.6°C 65.9°F18.8°C 66% 2.9 mph NE4.7 kmh NE 4.9 mph7.9 kmh 29.29 in991.9 mb 0.00 in0.0 mm 0.00 in0.0 mm 0.00 in0.0 mm
07:10 PM 77.4°F25.2°C 65.8°F18.8°C 68% 3.9 mph NE6.3 kmh NE 9.8 mph15.8 kmh 29.29 in991.9 mb 0.00 in0.0 mm 0.00 in0.0 mm 0.00 in0.0 mm
07:15 PM 77.4°F25.2°C 66.0°F18.9°C 68% 2.4 mph NE3.9 kmh NE 7.4 mph11.9 kmh 29.29 in991.9 mb 0.00 in0.0 mm 0.00 in0.0 mm 0.00 in0.0 mm
07:20 PM 77.3°F25.2°C 65.9°F18.8°C 68% 2.4 mph E3.9 kmh E 7.4 mph11.9 kmh 29.29 in991.9 mb 0.00 in0.0 mm 0.00 in0.0 mm 0.00 in0.0 mm
07:25 PM 77.2°F25.1°C 65.8°F18.8°C 68% 3.6 mph NNE5.8 kmh NNE 7.4 mph11.9 kmh 29.30 in992.2 mb 0.00 in0.0 mm 0.00 in0.0 mm 0.00 in0.0 mm
07:30 PM 77.2°F25.1°C 65.9°F18.8°C 68% 1.0 mph NNE1.6 kmh NNE 2.5 mph4.0 kmh 29.29 in991.9 mb 0.00 in0.0 mm 0.00 in0.0 mm 0.00 in0.0 mm
07:35 PM 77.0°F25.0°C 66.1°F18.9°C 69% 1.8 mph NNE2.9 kmh NNE 4.9 mph7.9 kmh 29.30 in992.2 mb 0.00 in0.0 mm 0.00 in0.0 mm 0.00 in0.0 mm
07:40 PM 77.0°F25.0°C 66.5°F19.2°C 70% 2.6 mph NNE4.2 kmh NNE 7.4 mph11.9 kmh 29.30 in992.2 mb 0.00 in0.0 mm 0.00 in0.0 mm 0.00 in0.0 mm
07:45 PM 76.9°F24.9°C 66.8°F19.3°C 71% 2.6 mph NE4.2 kmh NE 4.9 mph7.9 kmh 29.30 in992.2 mb 0.00 in0.0 mm 0.00 in0.0 mm 0.00 in0.0 mm
07:50 PM 76.6°F24.8°C 66.2°F19.0°C 70% 2.2 mph N3.5 kmh N 4.9 mph7.9 kmh 29.30 in992.2 mb 0.00 in0.0 mm 0.00 in0.0 mm 0.00 in0.0 mm
07:55 PM 76.6°F24.8°C 66.1°F18.9°C 70% 3.2 mph N5.1 kmh N 7.4 mph11.9 kmh 29.30 in992.2 mb 0.00 in0.0 mm 0.00 in0.0 mm 0.00 in0.0 mm
08:00 PM 76.6°F24.8°C 66.1°F18.9°C 70% 0.8 mph SE1.3 kmh SE 2.5 mph4.0 kmh 29.30 in992.2 mb 0.00 in0.0 mm 0.00 in0.0 mm 0.00 in0.0 mm
08:05 PM 76.5°F24.7°C 66.1°F18.9°C 70% 2.6 mph NE4.2 kmh NE 4.9 mph7.9 kmh 29.30 in992.2 mb 0.00 in0.0 mm 0.00 in0.0 mm 0.00 in0.0 mm
08:10 PM 76.2°F24.6°C 66.1°F18.9°C 71% 3.6 mph NE5.8 kmh NE 7.4 mph11.9 kmh 29.30 in992.2 mb 0.00 in0.0 mm 0.00 in0.0 mm 0.00 in0.0 mm
08:15 PM 76.1°F24.5°C 66.0°F18.9°C 71% 1.9 mph NE3.1 kmh NE 4.9 mph7.9 kmh 29.30 in992.2 mb 0.00 in0.0 mm 0.00 in0.0 mm 0.00 in0.0 mm
08:20 PM 76.1°F24.5°C 66.0°F18.9°C 71% 2.8 mph NNE4.5 kmh NNE 7.4 mph11.9 kmh 29.30 in992.2 mb 0.00 in0.0 mm 0.00 in0.0 mm 0.00 in0.0 mm
08:25 PM 75.9°F24.4°C 66.3°F19.1°C 72% 1.3 mph NNE2.1 kmh NNE 4.9 mph7.9 kmh 29.30 in992.2 mb 0.00 in0.0 mm 0.00 in0.0 mm 0.00 in0.0 mm
08:30 PM 75.6°F24.2°C 65.9°F18.8°C 72% 1.8 mph ENE2.9 kmh ENE 4.9 mph7.9 kmh 29.30 in992.2 mb 0.00 in0.0 mm 0.00 in0.0 mm 0.00 in0.0 mm
08:35 PM 75.6°F24.2°C 65.9°F18.8°C 72% 3.6 mph ENE5.8 kmh ENE 7.4 mph11.9 kmh 29.31 in992.6 mb 0.00 in0.0 mm 0.00 in0.0 mm 0.00 in0.0 mm
08:40 PM 75.6°F24.2°C 65.9°F18.8°C 72% 2.4 mph N3.9 kmh N 7.4 mph11.9 kmh 29.31 in992.6 mb 0.00 in0.0 mm 0.00 in0.0 mm 0.00 in0.0 mm
08:45 PM 75.3°F24.1°C 65.9°F18.8°C 73% 3.7 mph ENE6.0 kmh ENE 7.4 mph11.9 kmh 29.31 in992.6 mb 0.00 in0.0 mm 0.00 in0.0 mm 0.00 in0.0 mm
08:50 PM 74.9°F23.8°C 66.0°F18.9°C 74% 3.2 mph ENE5.1 kmh ENE 7.4 mph11.9 kmh 29.31 in992.6 mb 0.00 in0.0 mm 0.00 in0.0 mm 0.00 in0.0 mm
08:55 PM 74.8°F23.8°C 65.9°F18.8°C 74% 4.7 mph NE7.6 kmh NE 9.8 mph15.8 kmh 29.31 in992.6 mb 0.00 in0.0 mm 0.00 in0.0 mm 0.00 in0.0 mm
09:00 PM 74.8°F23.8°C 65.9°F18.8°C 74% 1.9 mph NE3.1 kmh NE 4.9 mph7.9 kmh 29.31 in992.6 mb 0.00 in0.0 mm 0.00 in0.0 mm 0.00 in0.0 mm
09:05 PM 74.8°F23.8°C 65.9°F18.8°C 74% 4.2 mph ENE6.8 kmh ENE 7.4 mph11.9 kmh 29.31 in992.6 mb 0.00 in0.0 mm 0.00 in0.0 mm 0.00 in0.0 mm
09:10 PM 74.7°F23.7°C 65.8°F18.8°C 74% 2.9 mph NE4.7 kmh NE 9.8 mph15.8 kmh 29.32 in992.9 mb 0.00 in0.0 mm 0.00 in0.0 mm 0.00 in0.0 mm
09:15 PM 74.7°F23.7°C 65.8°F18.8°C 74% 3.1 mph ENE5.0 kmh ENE 7.4 mph11.9 kmh 29.32 in992.9 mb 0.00 in0.0 mm 0.00 in0.0 mm 0.00 in0.0 mm
09:20 PM 74.7°F23.7°C 66.0°F18.9°C 74% 2.6 mph N4.2 kmh N 7.4 mph11.9 kmh 29.32 in992.9 mb 0.00 in0.0 mm 0.00 in0.0 mm 0.00 in0.0 mm
09:25 PM 74.7°F23.7°C 66.2°F19.0°C 75% 5.0 mph NE8.0 kmh NE 9.8 mph15.8 kmh 29.33 in993.2 mb 0.00 in0.0 mm 0.00 in0.0 mm 0.00 in0.0 mm
09:30 PM 74.6°F23.7°C 65.8°F18.8°C 74% 3.4 mph NE5.5 kmh NE 9.8 mph15.8 kmh 29.32 in992.9 mb 0.00 in0.0 mm 0.00 in0.0 mm 0.00 in0.0 mm
09:35 PM 74.5°F23.6°C 66.0°F18.9°C 75% 1.8 mph N2.9 kmh N 4.9 mph7.9 kmh 29.33 in993.2 mb 0.00 in0.0 mm 0.00 in0.0 mm 0.00 in0.0 mm
09:40 PM 74.5°F23.6°C 66.0°F18.9°C 75% 4.4 mph N7.1 kmh N 7.4 mph11.9 kmh 29.32 in992.9 mb 0.00 in0.0 mm 0.00 in0.0 mm 0.00 in0.0 mm
09:45 PM 74.3°F23.5°C 65.8°F18.8°C 75% 2.0 mph N3.2 kmh N 4.9 mph7.9 kmh 29.32 in992.9 mb 0.00 in0.0 mm 0.00 in0.0 mm 0.00 in0.0 mm
09:50 PM 74.1°F23.4°C 65.7°F18.7°C 75% 2.5 mph NNE4.0 kmh NNE 4.9 mph7.9 kmh 29.32 in992.9 mb 0.00 in0.0 mm 0.00 in0.0 mm 0.00 in0.0 mm
09:55 PM 74.1°F23.4°C 65.7°F18.7°C 75% 2.4 mph NE3.9 kmh NE 9.8 mph15.8 kmh 29.32 in992.9 mb 0.00 in0.0 mm 0.00 in0.0 mm 0.00 in0.0 mm
10:00 PM 74.1°F23.4°C 65.7°F18.7°C 75% 2.4 mph NNW3.9 kmh NNW 7.4 mph11.9 kmh 29.33 in993.2 mb 0.00 in0.0 mm 0.00 in0.0 mm 0.00 in0.0 mm
10:05 PM 74.1°F23.4°C 65.7°F18.7°C 75% 4.2 mph N6.8 kmh N 7.4 mph11.9 kmh 29.33 in993.2 mb 0.00 in0.0 mm 0.00 in0.0 mm 0.00 in0.0 mm
10:10 PM 73.9°F23.3°C 65.6°F18.7°C 75% 3.4 mph NE5.5 kmh NE 7.4 mph11.9 kmh 29.32 in992.9 mb 0.00 in0.0 mm 0.00 in0.0 mm 0.00 in0.0 mm
10:15 PM 73.9°F23.3°C 65.8°F18.8°C 76% 3.3 mph NNE5.3 kmh NNE 7.4 mph11.9 kmh 29.33 in993.2 mb 0.00 in0.0 mm 0.00 in0.0 mm 0.00 in0.0 mm
10:20 PM 73.8°F23.2°C 65.9°F18.8°C 76% 2.3 mph NNE3.7 kmh NNE 4.9 mph7.9 kmh 29.33 in993.2 mb 0.00 in0.0 mm 0.00 in0.0 mm 0.00 in0.0 mm
10:25 PM 73.8°F23.2°C 66.2°F19.0°C 77% 2.2 mph NNE3.5 kmh NNE 4.9 mph7.9 kmh 29.33 in993.2 mb 0.00 in0.0 mm 0.00 in0.0 mm 0.00 in0.0 mm
10:30 PM 73.2°F22.9°C 65.9°F18.8°C 78% 2.9 mph N4.7 kmh N 4.9 mph7.9 kmh 29.33 in993.2 mb 0.00 in0.0 mm 0.00 in0.0 mm 0.00 in0.0 mm
10:35 PM 73.2°F22.9°C 65.9°F18.8°C 78% 2.0 mph NNE3.2 kmh NNE 2.5 mph4.0 kmh 29.32 in992.9 mb 0.00 in0.0 mm 0.00 in0.0 mm 0.00 in0.0 mm
10:40 PM 73.1°F22.8°C 66.1°F18.9°C 79% 1.2 mph NE1.9 kmh NE 4.9 mph7.9 kmh 29.33 in993.2 mb 0.00 in0.0 mm 0.00 in0.0 mm 0.00 in0.0 mm
10:45 PM 73.0°F22.8°C 66.3°F19.1°C 80% 2.3 mph NNE3.7 kmh NNE 7.4 mph11.9 kmh 29.32 in992.9 mb 0.00 in0.0 mm 0.00 in0.0 mm 0.00 in0.0 mm
10:50 PM 72.7°F22.6°C 66.2°F19.0°C 80% 1.1 mph NE1.8 kmh NE 2.5 mph4.0 kmh 29.32 in992.9 mb 0.00 in0.0 mm 0.00 in0.0 mm 0.00 in0.0 mm
10:55 PM 72.5°F22.5°C 66.3°F19.1°C 81% 2.3 mph NE3.7 kmh NE 4.9 mph7.9 kmh 29.32 in992.9 mb 0.00 in0.0 mm 0.00 in0.0 mm 0.00 in0.0 mm
11:00 PM 72.5°F22.5°C 66.3°F19.1°C 81% 2.9 mph NNE4.7 kmh NNE 7.4 mph11.9 kmh 29.32 in992.9 mb 0.00 in0.0 mm 0.00 in0.0 mm 0.00 in0.0 mm
11:05 PM 72.5°F22.5°C 66.0°F18.9°C 80% 3.2 mph N5.1 kmh N 4.9 mph7.9 kmh 29.32 in992.9 mb 0.00 in0.0 mm 0.00 in0.0 mm 0.00 in0.0 mm
11:10 PM 72.9°F22.7°C 66.4°F19.1°C 80% 5.0 mph N8.0 kmh N 7.4 mph11.9 kmh 29.32 in992.9 mb 0.00 in0.0 mm 0.00 in0.0 mm 0.00 in0.0 mm
11:15 PM 72.9°F22.7°C 66.4°F19.1°C 80% 4.4 mph NNE7.1 kmh NNE 9.8 mph15.8 kmh 29.32 in992.9 mb 0.00 in0.0 mm 0.00 in0.0 mm 0.00 in0.0 mm
11:20 PM 72.7°F22.6°C 66.3°F19.1°C 80% 2.5 mph NNE4.0 kmh NNE 4.9 mph7.9 kmh 29.32 in992.9 mb 0.00 in0.0 mm 0.00 in0.0 mm 0.00 in0.0 mm
11:25 PM 72.7°F22.6°C 66.5°F19.2°C 81% 1.9 mph N3.1 kmh N 4.9 mph7.9 kmh 29.32 in992.9 mb 0.00 in0.0 mm 0.00 in0.0 mm 0.00 in0.0 mm
11:30 PM 72.5°F22.5°C 66.4°F19.1°C 81% 3.1 mph N5.0 kmh N 7.4 mph11.9 kmh 29.32 in992.9 mb 0.00 in0.0 mm 0.00 in0.0 mm 0.00 in0.0 mm
11:35 PM 72.3°F22.4°C 66.5°F19.2°C 82% 2.4 mph N3.9 kmh N 7.4 mph11.9 kmh 29.31 in992.6 mb 0.00 in0.0 mm 0.00 in0.0 mm 0.00 in0.0 mm
11:40 PM 72.3°F22.4°C 66.5°F19.2°C 82% 1.5 mph NNW2.4 kmh NNW 4.9 mph7.9 kmh 29.31 in992.6 mb 0.00 in0.0 mm 0.00 in0.0 mm 0.00 in0.0 mm
11:45 PM 72.3°F22.4°C 66.5°F19.2°C 82% 2.8 mph NNE4.5 kmh NNE 7.4 mph11.9 kmh 29.32 in992.9 mb 0.00 in0.0 mm 0.00 in0.0 mm 0.00 in0.0 mm
11:50 PM 72.1°F22.3°C 66.4°F19.1°C 82% 1.9 mph NNE3.1 kmh NNE 4.9 mph7.9 kmh 29.31 in992.6 mb 0.00 in0.0 mm 0.00 in0.0 mm 0.00 in0.0 mm
11:55 PM 72.0°F22.2°C 66.5°F19.2°C 83% 1.8 mph N2.9 kmh N 7.4 mph11.9 kmh 29.32 in992.9 mb 0.00 in0.0 mm 0.00 in0.0 mm 0.00 in0.0 mm